»·PEaware :: N111LW KVGT-L71

N111LW :: KVGT-L71

FLIGHT INFORMATION

Flight Status: Arrived
Operator: Privately registered:
United States
More flights under this callsign
Pilot: Lee W. (44)
Aircraft: CESSNA 172 SKYHAWK
(C172)
More flights by this aircraft type
Origin: KVGT North Las Vegas
United States
Destination: L71 California City Mun
United States
More flights between these airports :: More routes between these airports
Route: DCT
File this flight plan on PilotEdge
Remarks:
Altitude:
(Current/Filed)
10,500ft
Speed:
(Current/Filed)
100kts
Departed: 18-Jan-14 08:35 AM
Arrived: 18-Jan-14 10:43 AM
Distance/Time
Traveled:
151nm/2:08
Distance/Time
To Go:
Arrived

Flight Plot

Page will automatically refresh every two minutes.


Map Options




Map Legend


Flown Route
Filed Route
Departure Airport
Arrival Airport
Navaid (VOR, NDB)
Fix

Horizontal Profiles

Position Reports

Time Latitude Longitude Heading Altitude Ground
Speed
18-Jan-14 08:25 36.209773 -115.199305 230 2208ft 0kts
18-Jan-14 08:26 36.209773 -115.199305 230 2208ft 0kts
18-Jan-14 08:27 36.209773 -115.199305 230 2208ft 0kts
18-Jan-14 08:28 36.210031 -115.199456 36 2208ft 6kts
18-Jan-14 08:29 36.211915 -115.200337 313 2208ft 13kts
18-Jan-14 08:30 36.213094 -115.203336 354 2208ft 1kts
18-Jan-14 08:31 36.214248 -115.203120 43 2208ft 0kts
18-Jan-14 08:32 36.210960 -115.197970 133 2218ft 79kts
18-Jan-14 08:33 36.193557 -115.190200 238 2939ft 75kts
18-Jan-14 08:34 36.191603 -115.214638 265 3642ft 72kts
18-Jan-14 08:35 36.190829 -115.239324 268 4312ft 73kts
18-Jan-14 08:36 36.188003 -115.269776 272 4546ft 96kts
18-Jan-14 08:37 36.189157 -115.305701 273 4498ft 100kts
18-Jan-14 08:38 36.186917 -115.335464 253 5078ft 76kts
18-Jan-14 08:39 36.175991 -115.358046 248 5661ft 76kts
18-Jan-14 08:40 36.185302 -115.374186 339 6178ft 68kts
18-Jan-14 08:41 36.205912 -115.379163 350 6506ft 86kts
18-Jan-14 08:42 36.226464 -115.381320 356 6382ft 91kts
18-Jan-14 08:43 36.250214 -115.383792 347 6516ft 86kts
18-Jan-14 08:44 36.273203 -115.391451 345 6557ft 86kts
18-Jan-14 08:45 36.296680 -115.398347 344 6473ft 97kts
18-Jan-14 08:46 36.322498 -115.402097 356 6387ft 94kts
18-Jan-14 08:47 36.348470 -115.405696 351 6302ft 94kts
18-Jan-14 08:48 36.373766 -115.413536 333 6296ft 94kts
18-Jan-14 08:49 36.397714 -115.426846 339 6360ft 95kts
18-Jan-14 08:50 36.421754 -115.440265 325 6411ft 96kts
18-Jan-14 08:51 36.443418 -115.460152 311 6443ft 99kts
18-Jan-14 08:52 36.461203 -115.480654 318 6450ft 97kts
18-Jan-14 08:53 36.481097 -115.503999 314 6415ft 98kts
18-Jan-14 08:54 36.498711 -115.530100 316 6390ft 98kts
18-Jan-14 08:55 36.516648 -115.555628 301 6347ft 100kts
18-Jan-14 08:56 36.534526 -115.581409 312 6338ft 98kts
18-Jan-14 08:57 36.547927 -115.604860 291 5404ft 81kts
18-Jan-14 08:58 36.554075 -115.629136 284 4488ft 68kts
18-Jan-14 08:59 36.567428 -115.642219 345 3777ft 64kts
18-Jan-14 09:00 36.582701 -115.651997 286 3493ft 63kts
18-Jan-14 09:01 36.583642 -115.670809 276 3136ft 0kts
18-Jan-14 09:02 36.583974 -115.680895 272 3152ft 68kts
18-Jan-14 09:03 36.584869 -115.705295 271 3401ft 73kts
18-Jan-14 09:04 36.577870 -115.729038 237 3919ft 74kts
18-Jan-14 09:05 36.574118 -115.753798 273 4421ft 73kts
18-Jan-14 09:06 36.575673 -115.779264 276 4904ft 74kts
18-Jan-14 09:07 36.574919 -115.804780 262 5373ft 75kts
18-Jan-14 09:08 36.575610 -115.830511 256 5828ft 75kts
18-Jan-14 09:09 36.573587 -115.856843 258 6254ft 77kts
18-Jan-14 09:10 36.568809 -115.882583 265 6683ft 76kts
18-Jan-14 09:11 36.564426 -115.908169 255 7079ft 76kts
18-Jan-14 09:12 36.559961 -115.933949 254 7457ft 76kts
18-Jan-14 09:13 36.558601 -115.960197 249 7819ft 76kts
18-Jan-14 09:14 36.552213 -115.985542 251 8156ft 77kts
18-Jan-14 09:15 36.546967 -116.012540 254 8399ft 90kts
18-Jan-14 09:16 36.538379 -116.044954 252 8328ft 105kts
18-Jan-14 09:17 36.528278 -116.078470 246 8237ft 99kts
18-Jan-14 09:18 36.516469 -116.109677 241 8171ft 99kts
18-Jan-14 09:19 36.502636 -116.139682 236 8144ft 100kts
18-Jan-14 09:20 36.483217 -116.164257 224 8185ft 102kts
18-Jan-14 09:21 36.463066 -116.187969 226 8270ft 103kts
18-Jan-14 09:22 36.444555 -116.215168 227 8277ft 103kts
18-Jan-14 09:23 36.422185 -116.237786 210 8287ft 103kts
18-Jan-14 09:24 36.403285 -116.263321 240 8310ft 102kts
18-Jan-14 09:25 36.381437 -116.285991 207 8293ft 104kts
18-Jan-14 09:26 36.355696 -116.301303 216 8354ft 97kts
18-Jan-14 09:27 36.334298 -116.322749 214 8401ft 98kts
18-Jan-14 09:28 36.313401 -116.345162 215 8451ft 100kts
18-Jan-14 09:29 36.290207 -116.363961 207 8415ft 99kts
18-Jan-14 09:30 36.268942 -116.383333 237 8371ft 95kts
18-Jan-14 09:31 36.253819 -116.411180 238 8312ft 97kts
18-Jan-14 09:32 36.238852 -116.439126 237 8280ft 96kts
18-Jan-14 09:33 36.221209 -116.464351 223 8312ft 97kts
18-Jan-14 09:34 36.198442 -116.481776 184 8297ft 101kts
18-Jan-14 09:35 36.178016 -116.502810 224 8296ft 95kts
18-Jan-14 09:36 36.155328 -116.521424 235 8229ft 100kts
18-Jan-14 09:37 36.137546 -116.547808 217 8256ft 105kts
18-Jan-14 09:38 36.114482 -116.569674 210 8245ft 106kts
18-Jan-14 09:39 36.095042 -116.588120 225 8226ft 106kts
18-Jan-14 09:40 36.072856 -116.612514 217 8259ft 105kts
18-Jan-14 09:41 36.048622 -116.634328 215 8222ft 107kts
18-Jan-14 09:42 36.026575 -116.659353 226 8301ft 107kts
18-Jan-14 09:43 36.003262 -116.682756 224 8374ft 111kts
18-Jan-14 09:44 35.984593 -116.711571 239 8441ft 107kts
18-Jan-14 09:45 35.970492 -116.743988 249 8435ft 107kts
18-Jan-14 09:46 35.956905 -116.776895 240 8408ft 108kts
18-Jan-14 09:47 35.950651 -116.811607 271 8371ft 105kts
18-Jan-14 09:48 35.948041 -116.847746 268 8354ft 106kts
18-Jan-14 09:49 35.945442 -116.883978 263 8333ft 106kts
18-Jan-14 09:50 35.943188 -116.919804 270 8339ft 104kts
18-Jan-14 09:51 35.941750 -116.955124 269 8364ft 102kts
18-Jan-14 09:52 35.941186 -116.989941 270 8391ft 100kts
18-Jan-14 09:53 35.941047 -117.024285 270 8372ft 99kts
18-Jan-14 09:54 35.941991 -117.058164 272 8417ft 98kts
18-Jan-14 09:55 35.939143 -117.091713 262 8462ft 97kts
18-Jan-14 09:56 35.934919 -117.124224 259 8495ft 97kts
18-Jan-14 09:57 35.926927 -117.156178 241 8514ft 97kts
18-Jan-14 09:58 35.911995 -117.184109 233 8536ft 97kts
18-Jan-14 09:59 35.896544 -117.211507 240 8556ft 97kts
18-Jan-14 10:00 35.885153 -117.241651 245 8553ft 97kts
18-Jan-14 10:01 35.865206 -117.262299 204 8472ft 99kts
18-Jan-14 10:02 35.841362 -117.278285 210 8433ft 97kts
18-Jan-14 10:03 35.818103 -117.294336 195 8390ft 96kts
18-Jan-14 10:04 35.792193 -117.303543 202 8369ft 97kts
18-Jan-14 10:05 35.767035 -117.315130 229 8341ft 100kts
18-Jan-14 10:06 35.754891 -117.344944 232 8368ft 98kts
18-Jan-14 10:07 35.734784 -117.367067 218 8393ft 97kts
18-Jan-14 10:08 35.715776 -117.390439 235 8411ft 97kts
18-Jan-14 10:09 35.699897 -117.417434 238 8425ft 97kts
18-Jan-14 10:10 35.687760 -117.446908 241 8439ft 97kts
18-Jan-14 10:11 35.674992 -117.476214 243 8453ft 97kts
18-Jan-14 10:12 35.662233 -117.505608 241 8468ft 97kts
18-Jan-14 10:13 35.649684 -117.535024 237 8481ft 97kts
18-Jan-14 10:14 35.634486 -117.562519 231 8496ft 97kts
18-Jan-14 10:15 35.616962 -117.587734 226 8509ft 97kts
18-Jan-14 10:16 35.595094 -117.605092 187 8490ft 98kts
18-Jan-14 10:17 35.568286 -117.603601 196 8497ft 98kts
18-Jan-14 10:18 35.544754 -117.619716 200 8513ft 97kts
18-Jan-14 10:19 35.521003 -117.636706 213 8529ft 97kts
18-Jan-14 10:20 35.498624 -117.655437 215 8520ft 99kts
18-Jan-14 10:21 35.476187 -117.674945 217 8510ft 99kts
18-Jan-14 10:22 35.453401 -117.693688 212 8497ft 98kts
18-Jan-14 10:23 35.431830 -117.712143 220 8485ft 98kts
18-Jan-14 10:24 35.410468 -117.733391 216 8474ft 98kts
18-Jan-14 10:25 35.388210 -117.752960 218 8465ft 98kts
18-Jan-14 10:26 35.367373 -117.774826 232 8447ft 99kts
18-Jan-14 10:27 35.349937 -117.800935 227 8442ft 99kts
18-Jan-14 10:28 35.329499 -117.823413 215 8432ft 99kts
18-Jan-14 10:29 35.310041 -117.838330 214 8409ft 100kts
18-Jan-14 10:30 35.286259 -117.864343 228 7993ft 98kts
18-Jan-14 10:31 35.269531 -117.890669 240 7619ft 99kts
18-Jan-14 10:32 35.255016 -117.912354 225 7317ft 99kts
18-Jan-14 10:33 35.237259 -117.937512 236 6608ft 98kts
18-Jan-14 10:34 35.224074 -117.963603 242 6026ft 78kts
18-Jan-14 10:35 35.212897 -117.986045 204 4847ft 81kts
18-Jan-14 10:36 35.192727 -117.980682 162 3814ft 74kts
18-Jan-14 10:37 35.173619 -117.974105 167 3249ft 69kts
18-Jan-14 10:38 35.158222 -117.983774 245 2930ft 65kts
18-Jan-14 10:39 35.153637 -118.005334 256 2542ft 67kts
18-Jan-14 10:40 35.151544 -118.015278 255 2457ft 19kts
18-Jan-14 10:41 35.150882 -118.016543 161 2457ft 0kts

Navigation Log

Ident Type
Flight plan parsing failed, navigation log unavailable